Crew | Aerofun Virtual



 METAR AND TAF INFORMATION
METAR FOR LEAM
ADDS - METARS form results

(0334 UTC 23 September 2019)
Data provider http://aviationweather.gov/metar/data/
 
METAR text: LEAM 230330Z 06006KT CAVOK 21/20 Q1016
Conditions at: LEAM (ALMERIA AIRPORT , ES) observed 0330 UTC 23 September 2019
Temperature: 21.0°C (70°F)
Dewpoint: 20.0°C (68°F) [RH = 94%]
Pressure (altimeter): 30.00 inches Hg (1016.0 mb)
Winds: from the ENE (60 degrees) at 7 MPH (6 knots; 3.1 m/s)
Visibility: 6 or more miles (10+ km)
Ceiling: ceiling and visibility are OK
Clouds: unknown
Weather: no significant weather observed at this time

METAR text: LEAM 230300Z 06006KT CAVOK 21/19 Q1016
Conditions at: LEAM (ALMERIA AIRPORT , ES) observed 0300 UTC 23 September 2019
Temperature: 21.0°C (70°F)
Dewpoint: 19.0°C (66°F) [RH = 88%]
Pressure (altimeter): 30.00 inches Hg (1016.0 mb)
Winds: from the ENE (60 degrees) at 7 MPH (6 knots; 3.1 m/s)
Visibility: 6 or more miles (10+ km)
Ceiling: ceiling and visibility are OK
Clouds: unknown
Weather: no significant weather observed at this time

Forecast for: LEAM (ALMERIA AIRPORT , ES)
Text: TAF LEAM 230200Z 2303/2403 04009KT CAVOK TX26/2310Z TN20/2306Z
Forecast period: 0300 to 1000 UTC 23 September 2019
Forecast type: FROM: standard forecast or significant change
Winds: from the NE (40 degrees) at 10 MPH (9 knots; 4.6 m/s)
Visibility: 6 or more miles 10+ km)
Ceiling: unknown
Clouds: missing
Weather: no significant weather forecast for this period
Text: BECMG 2310/2312 14010KT
Forecast period: 1000 UTC 23 September 2019 to 0300 UTC 24 September 2019
Forecast type: BECOMING: Conditions expected to become as follows by 1200 UTC 23 September 2019
Winds: from the SE (140 degrees) at 12 MPH (10 knots; 5.1 m/s)
Visibility: 6 or more miles 10+ km)
Ceiling: unknown
Clouds: missing
Weather: no significant weather forecast for this period

 AIRPORT MAP

 RUNWAY INFORMATION
Runway 08 Runway length 10499 ft Runway width 148 ft
Runway elevation 26 ft Runway displaced threshold 492 ft Runway heading 73
Runway 26 Runway length 10499 ft Runway width 148 ft
Runway elevation 70 ft Runway displaced threshold 0 ft Runway heading 253

 AIRPORT FREQUENCIES
Type APP Name APP Frequency 118.35 MHZ
Type GND Name GND Frequency 121.7 MHZ
Type TWR Name TWR Frequency 118.35 MHZ

 AIRPORT NEAR NAVIGATION AIDS
Type NDB Name Almeria Frequency 284 KHZ
Type NDB Name Almeria Frequency 310 KHZ
Type VOR-DME Name Almeria Frequency 114100 KHZ